createdAt,value
2019-03-13T00:00:29.776Z,923.15
2019-03-13T00:01:29.768Z,923.17
2019-03-13T00:02:29.755Z,923.18
2019-03-13T00:03:29.840Z,923.14
2019-03-13T00:04:29.736Z,923.16
2019-03-13T00:05:29.719Z,923.15
2019-03-13T00:06:29.710Z,923.18
2019-03-13T00:07:29.703Z,923.20
2019-03-13T00:08:29.689Z,923.17
2019-03-13T00:09:29.828Z,923.16
2019-03-13T00:10:32.370Z,923.13
2019-03-13T00:11:29.660Z,923.17
2019-03-13T00:12:29.654Z,923.13
2019-03-13T00:13:29.638Z,923.12
2019-03-13T00:14:29.626Z,923.17
2019-03-13T00:15:29.720Z,923.11
2019-03-13T00:16:29.608Z,923.12
2019-03-13T00:17:29.593Z,923.12
2019-03-13T00:18:29.583Z,923.16
2019-03-13T00:19:29.570Z,923.12
2019-03-13T00:20:29.593Z,923.13
2019-03-13T00:21:29.649Z,923.19
2019-03-13T00:22:29.539Z,923.14
2019-03-13T00:23:29.526Z,923.16
2019-03-13T00:24:29.518Z,923.20
2019-03-13T00:25:29.509Z,923.20
2019-03-13T00:26:29.498Z,923.21
2019-03-13T00:27:29.640Z,923.20
2019-03-13T00:28:29.476Z,923.20
2019-03-13T00:29:29.467Z,923.18
2019-03-13T00:30:29.454Z,923.12
2019-03-13T00:31:29.453Z,923.15
2019-03-13T00:32:29.437Z,923.16
2019-03-13T00:33:29.528Z,923.15
2019-03-13T00:34:29.416Z,923.14
2019-03-13T00:35:29.405Z,923.16
2019-03-13T00:36:29.392Z,923.15
2019-03-13T00:37:29.379Z,923.15
2019-03-13T00:38:29.394Z,923.11
2019-03-13T00:39:29.408Z,923.12
2019-03-13T00:40:29.347Z,923.16
2019-03-13T00:41:29.340Z,923.15
2019-03-13T00:42:29.325Z,923.14
2019-03-13T00:43:29.314Z,923.12
2019-03-13T00:44:29.455Z,923.12
2019-03-13T00:45:29.297Z,923.13
2019-03-13T00:46:29.297Z,923.17
2019-03-13T00:47:29.275Z,923.10
2019-03-13T00:48:29.268Z,923.11
2019-03-13T00:49:29.252Z,923.13
2019-03-13T00:50:29.346Z,923.12
2019-03-13T00:51:29.230Z,923.12
2019-03-13T00:52:29.229Z,923.10
2019-03-13T00:53:29.215Z,923.18
2019-03-13T00:54:29.199Z,923.11
2019-03-13T00:55:29.186Z,923.12
2019-03-13T00:56:29.319Z,923.15
2019-03-13T00:57:29.170Z,923.14
2019-03-13T00:58:29.163Z,923.11
2019-03-13T00:59:29.148Z,923.14
2019-03-13T01:00:29.137Z,923.12
2019-03-13T01:01:29.230Z,923.12
2019-03-13T01:02:29.114Z,923.11
2019-03-13T01:03:29.108Z,923.11
2019-03-13T01:04:29.093Z,923.08
2019-03-13T01:05:29.083Z,923.06
2019-03-13T01:06:29.226Z,923.07
2019-03-13T01:07:29.062Z,923.05
2019-03-13T01:08:29.050Z,923.13
2019-03-13T01:09:29.042Z,923.12
2019-03-13T01:10:29.036Z,923.08
2019-03-13T01:11:29.021Z,923.11
2019-03-13T01:12:29.110Z,923.07
2019-03-13T01:13:28.997Z,923.10
2019-03-13T01:14:28.988Z,923.07
2019-03-13T01:15:28.977Z,923.11
2019-03-13T01:16:28.965Z,923.11
2019-03-13T01:17:28.956Z,923.11
2019-03-13T01:18:28.999Z,923.13
2019-03-13T01:19:28.936Z,923.12
2019-03-13T01:20:28.929Z,923.10
2019-03-13T01:21:28.914Z,923.11
2019-03-13T01:22:28.899Z,923.09
2019-03-13T01:23:28.905Z,923.11
2019-03-13T01:24:29.035Z,923.15
2019-03-13T01:25:28.871Z,923.09
2019-03-13T01:26:28.875Z,923.11
2019-03-13T01:27:28.852Z,923.11
2019-03-13T01:28:28.844Z,923.11
2019-03-13T01:29:28.830Z,923.10
2019-03-13T01:30:28.872Z,923.07
2019-03-13T01:31:28.806Z,923.11
2019-03-13T01:32:28.795Z,923.13
2019-03-13T01:33:28.787Z,923.17
2019-03-13T01:34:28.776Z,923.12
2019-03-13T01:35:28.771Z,923.11
2019-03-13T01:36:28.854Z,923.16
2019-03-13T01:37:28.746Z,923.15
2019-03-13T01:38:28.732Z,923.19
2019-03-13T01:39:28.722Z,923.16
2019-03-13T01:40:28.717Z,923.18
2019-03-13T01:41:28.700Z,923.16
2019-03-13T01:42:28.942Z,923.20
2019-03-13T01:43:28.683Z,923.21
2019-03-13T01:44:28.668Z,923.23
2019-03-13T01:45:28.656Z,923.24
2019-03-13T01:46:28.649Z,923.22
2019-03-13T01:47:28.637Z,923.24
2019-03-13T01:48:28.726Z,923.25
2019-03-13T01:49:28.619Z,923.22
2019-03-13T01:50:28.610Z,923.24
2019-03-13T01:51:28.594Z,923.22
2019-03-13T01:52:28.585Z,923.22
2019-03-13T01:53:28.576Z,923.23
2019-03-13T01:54:28.611Z,923.19
2019-03-13T01:55:28.551Z,923.20
2019-03-13T01:56:28.539Z,923.18
2019-03-13T01:57:28.531Z,923.18
2019-03-13T01:58:28.519Z,923.19
2019-03-13T01:59:28.509Z,923.19
2019-03-13T02:00:28.703Z,923.20
2019-03-13T02:01:28.491Z,923.19
2019-03-13T02:02:28.476Z,923.21
2019-03-13T02:03:28.467Z,923.25
2019-03-13T02:04:28.456Z,923.24
2019-03-13T02:05:28.441Z,923.27
2019-03-13T02:06:28.538Z,923.24
2019-03-13T02:07:28.422Z,923.27
2019-03-13T02:08:28.412Z,923.25
2019-03-13T02:09:28.402Z,923.27
2019-03-13T02:10:28.393Z,923.30
2019-03-13T02:11:28.378Z,923.29
2019-03-13T02:12:28.419Z,923.32
2019-03-13T02:13:28.360Z,923.31
2019-03-13T02:14:28.355Z,923.27
2019-03-13T02:15:28.336Z,923.28
2019-03-13T02:16:28.328Z,923.33
2019-03-13T02:17:28.315Z,923.34
2019-03-13T02:18:28.454Z,923.33
2019-03-13T02:19:28.293Z,923.32
2019-03-13T02:20:28.286Z,923.32
2019-03-13T02:21:28.272Z,923.34
2019-03-13T02:22:28.258Z,923.35
2019-03-13T02:23:28.251Z,923.36
2019-03-13T02:24:28.339Z,923.38
2019-03-13T02:25:28.228Z,923.32
2019-03-13T02:26:28.222Z,923.37
2019-03-13T02:27:28.209Z,923.41
2019-03-13T02:28:28.200Z,923.42
2019-03-13T02:29:28.187Z,923.39
2019-03-13T02:30:28.284Z,923.47
2019-03-13T02:31:28.166Z,923.43
2019-03-13T02:32:28.156Z,923.37
2019-03-13T02:33:28.145Z,923.34
2019-03-13T02:34:28.145Z,923.34
2019-03-13T02:35:28.133Z,923.30
2019-03-13T02:36:28.268Z,923.33
2019-03-13T02:37:28.106Z,923.32
2019-03-13T02:38:28.099Z,923.33
2019-03-13T02:39:28.085Z,923.34
2019-03-13T02:40:28.073Z,923.37
2019-03-13T02:41:28.115Z,923.40
2019-03-13T02:42:28.051Z,923.39
2019-03-13T02:43:28.040Z,923.41
2019-03-13T02:44:28.032Z,923.40
2019-03-13T02:45:28.024Z,923.40
2019-03-13T02:46:28.113Z,923.42
2019-03-13T02:47:27.998Z,923.41
2019-03-13T02:48:27.990Z,923.44
2019-03-13T02:49:27.990Z,923.48
2019-03-13T02:50:27.967Z,923.45
2019-03-13T02:51:27.955Z,923.47
2019-03-13T02:52:28.099Z,923.46
2019-03-13T02:53:27.946Z,923.44
2019-03-13T02:54:27.926Z,923.39
2019-03-13T02:55:27.910Z,923.39
2019-03-13T02:56:27.902Z,923.43
2019-03-13T02:57:27.944Z,923.43
2019-03-13T02:58:27.884Z,923.42
2019-03-13T02:59:27.870Z,923.41
2019-03-13T03:00:27.859Z,923.43
2019-03-13T03:01:27.853Z,923.45
2019-03-13T03:02:27.849Z,923.50
2019-03-13T03:03:27.880Z,923.52
2019-03-13T03:04:27.814Z,923.48
2019-03-13T03:05:27.810Z,923.46
2019-03-13T03:06:27.808Z,923.43
2019-03-13T03:07:27.789Z,923.46
2019-03-13T03:08:27.775Z,923.44
2019-03-13T03:09:27.868Z,923.48
2019-03-13T03:10:27.756Z,923.49
2019-03-13T03:11:27.742Z,923.45
2019-03-13T03:12:27.733Z,923.51
2019-03-13T03:13:27.726Z,923.55
2019-03-13T03:14:27.965Z,923.49
2019-03-13T03:15:27.702Z,923.47
2019-03-13T03:16:27.692Z,923.46
2019-03-13T03:17:27.687Z,923.48
2019-03-13T03:18:27.674Z,923.48
2019-03-13T03:19:27.662Z,923.49
2019-03-13T03:20:27.738Z,923.45
2019-03-13T03:21:27.668Z,923.49
2019-03-13T03:22:27.630Z,923.46
2019-03-13T03:23:27.620Z,923.55
2019-03-13T03:24:27.606Z,923.52
2019-03-13T03:25:27.600Z,923.60
2019-03-13T03:26:27.688Z,923.58
2019-03-13T03:27:27.578Z,923.51
2019-03-13T03:28:27.556Z,923.52
2019-03-13T03:29:27.543Z,923.52
2019-03-13T03:30:27.537Z,923.53
2019-03-13T03:31:27.531Z,923.53
2019-03-13T03:32:27.668Z,923.55
2019-03-13T03:33:27.508Z,923.59
2019-03-13T03:34:27.508Z,923.59
2019-03-13T03:35:27.482Z,923.59
2019-03-13T03:36:27.471Z,923.65
2019-03-13T03:37:27.463Z,923.64
2019-03-13T03:38:27.500Z,923.57
2019-03-13T03:39:27.442Z,923.58
2019-03-13T03:40:27.430Z,923.59
2019-03-13T03:41:27.416Z,923.63
2019-03-13T03:42:27.408Z,923.64
2019-03-13T03:43:39.426Z,923.64
2019-03-13T03:44:52.247Z,923.62
2019-03-13T03:45:52.238Z,923.65
2019-03-13T03:46:52.281Z,923.63
2019-03-13T03:47:52.318Z,923.59
2019-03-13T03:48:52.297Z,923.60
2019-03-13T03:49:52.396Z,923.60
2019-03-13T03:50:52.189Z,923.57
2019-03-13T03:51:52.177Z,923.58
2019-03-13T03:52:52.171Z,923.59
2019-03-13T03:53:52.224Z,923.66
2019-03-13T03:54:52.142Z,923.61
2019-03-13T03:55:52.183Z,923.61
2019-03-13T03:56:52.127Z,923.57
2019-03-13T03:57:52.113Z,923.59
2019-03-13T03:58:52.113Z,923.59
2019-03-13T03:59:52.097Z,923.56
2019-03-13T04:00:52.082Z,923.54
2019-03-13T04:01:52.179Z,923.58
2019-03-13T04:02:52.064Z,923.57
2019-03-13T04:03:52.052Z,923.55
2019-03-13T04:04:52.039Z,923.58
2019-03-13T04:05:52.033Z,923.59
2019-03-13T04:06:52.018Z,923.58
2019-03-13T04:07:52.419Z,923.61
2019-03-13T04:08:52.003Z,923.56
2019-03-13T04:09:51.994Z,923.57
2019-03-13T04:10:51.981Z,923.61
2019-03-13T04:11:51.969Z,923.56
2019-03-13T04:12:51.962Z,923.55
2019-03-13T04:13:52.001Z,923.59
2019-03-13T04:14:51.940Z,923.60
2019-03-13T04:15:51.928Z,923.57
2019-03-13T04:16:51.922Z,923.59
2019-03-13T04:17:51.923Z,923.62
2019-03-13T04:18:52.004Z,923.60
2019-03-13T04:19:51.899Z,923.60
2019-03-13T04:20:51.887Z,923.61
2019-03-13T04:21:51.868Z,923.61
2019-03-13T04:22:51.886Z,923.60
2019-03-13T04:23:51.852Z,923.56
2019-03-13T04:24:51.953Z,923.56
2019-03-13T04:25:51.832Z,923.60
2019-03-13T04:26:51.815Z,923.56
2019-03-13T04:27:51.807Z,923.57
2019-03-13T04:28:51.799Z,923.56
2019-03-13T04:29:51.935Z,923.56
2019-03-13T04:30:51.775Z,923.53
2019-03-13T04:31:51.765Z,923.56
2019-03-13T04:32:51.763Z,923.54
2019-03-13T04:33:51.754Z,923.52
2019-03-13T04:34:51.737Z,923.51
2019-03-13T04:35:51.826Z,923.51
2019-03-13T04:36:51.715Z,923.48
2019-03-13T04:37:51.705Z,923.47
2019-03-13T04:38:51.725Z,923.49
2019-03-13T04:39:51.683Z,923.44
2019-03-13T04:40:51.671Z,923.45
2019-03-13T04:41:51.720Z,923.48
2019-03-13T04:42:51.691Z,923.46
2019-03-13T04:43:51.645Z,923.48
2019-03-13T04:44:51.633Z,923.43
2019-03-13T04:45:51.623Z,923.46
2019-03-13T04:46:51.861Z,923.44
2019-03-13T04:47:51.600Z,923.42
2019-03-13T04:48:51.592Z,923.40
2019-03-13T04:49:51.579Z,923.44
2019-03-13T04:50:51.570Z,923.40
2019-03-13T04:51:51.562Z,923.40
2019-03-13T04:52:51.603Z,923.38
2019-03-13T04:53:51.540Z,923.41
2019-03-13T04:54:51.530Z,923.38
2019-03-13T04:55:52.728Z,923.40
2019-03-13T04:56:51.513Z,923.38
2019-03-13T04:57:51.753Z,923.37
2019-03-13T04:58:51.490Z,923.37
2019-03-13T04:59:51.478Z,923.39
2019-03-13T05:00:51.465Z,923.39
2019-03-13T05:01:51.462Z,923.36
2019-03-13T05:02:51.447Z,923.35
2019-03-13T05:03:51.488Z,923.34
2019-03-13T05:04:51.438Z,923.31
2019-03-13T05:05:51.419Z,923.30
2019-03-13T05:06:51.420Z,923.25
2019-03-13T05:07:51.398Z,923.28
2019-03-13T05:08:51.437Z,923.31
2019-03-13T05:09:51.375Z,923.32
2019-03-13T05:10:51.367Z,923.27
2019-03-13T05:11:51.355Z,923.27
2019-03-13T05:12:51.391Z,923.31
2019-03-13T05:13:51.503Z,923.28
2019-03-13T05:14:51.323Z,923.33
2019-03-13T05:15:51.309Z,923.27
2019-03-13T05:16:51.305Z,923.25
2019-03-13T05:17:51.295Z,923.25
2019-03-13T05:18:51.286Z,923.25
2019-03-13T05:19:51.330Z,923.22
2019-03-13T05:20:51.260Z,923.22
2019-03-13T05:21:51.255Z,923.19
2019-03-13T05:22:51.239Z,923.16
2019-03-13T05:23:51.230Z,923.16
2019-03-13T05:24:51.222Z,923.12
2019-03-13T05:25:51.261Z,923.16
2019-03-13T05:26:51.198Z,923.14
2019-03-13T05:27:51.185Z,923.10
2019-03-13T05:28:51.180Z,923.13
2019-03-13T05:29:51.165Z,923.13
2019-03-13T05:30:53.152Z,923.15
2019-03-13T05:31:51.196Z,923.10
2019-03-13T05:32:51.132Z,923.05
2019-03-13T05:33:51.129Z,923.10
2019-03-13T05:34:51.120Z,923.08
2019-03-13T05:35:51.104Z,923.15
2019-03-13T05:36:51.089Z,923.15
2019-03-13T05:37:51.181Z,923.15
2019-03-13T05:38:51.076Z,923.11
2019-03-13T05:39:51.058Z,923.09
2019-03-13T05:40:51.052Z,923.07
2019-03-13T05:41:51.038Z,923.09
2019-03-13T05:42:51.030Z,923.09
2019-03-13T05:43:51.166Z,923.07
2019-03-13T05:44:51.007Z,923.04
2019-03-13T05:45:50.999Z,923.02
2019-03-13T05:46:50.982Z,923.00
2019-03-13T05:47:50.974Z,923.02
2019-03-13T05:48:50.961Z,922.99
2019-03-13T05:49:51.007Z,922.93
2019-03-13T05:50:50.947Z,922.96
2019-03-13T05:51:50.932Z,922.99
2019-03-13T05:52:50.926Z,922.99
2019-03-13T05:53:50.916Z,922.98
2019-03-13T05:54:50.905Z,922.97
2019-03-13T05:55:51.008Z,922.94
2019-03-13T05:56:50.888Z,922.95
2019-03-13T05:57:50.873Z,922.92
2019-03-13T05:58:50.864Z,922.90
2019-03-13T05:59:50.854Z,922.94
2019-03-13T06:00:50.840Z,922.91
2019-03-13T06:01:51.029Z,922.87
2019-03-13T06:02:50.820Z,922.83
2019-03-13T06:03:50.816Z,922.87
2019-03-13T06:04:50.799Z,922.88
2019-03-13T06:05:50.789Z,922.84
2019-03-13T06:06:50.792Z,922.84
2019-03-13T06:07:50.824Z,922.82
2019-03-13T06:08:50.761Z,922.79
2019-03-13T06:09:50.763Z,922.76
2019-03-13T06:10:50.735Z,922.78
2019-03-13T06:11:50.730Z,922.73
2019-03-13T06:12:50.718Z,922.75
2019-03-13T06:13:50.754Z,922.76
2019-03-13T06:14:50.696Z,922.74
2019-03-13T06:15:50.689Z,922.74
2019-03-13T06:16:50.703Z,922.70
2019-03-13T06:17:50.666Z,922.76
2019-03-13T06:18:52.890Z,922.70
2019-03-13T06:19:50.795Z,922.74
2019-03-13T06:20:50.635Z,922.73
2019-03-13T06:21:50.628Z,922.70
2019-03-13T06:22:50.612Z,922.68
2019-03-13T06:23:50.605Z,922.69
2019-03-13T06:24:50.595Z,922.66
2019-03-13T06:25:50.637Z,922.63
2019-03-13T06:26:50.574Z,922.60
2019-03-13T06:27:50.562Z,922.69
2019-03-13T06:28:50.555Z,922.68
2019-03-13T06:29:50.542Z,922.66
2019-03-13T06:30:50.533Z,922.64
2019-03-13T06:31:50.570Z,922.61
2019-03-13T06:32:50.512Z,922.67
2019-03-13T06:33:50.503Z,922.67
2019-03-13T06:34:50.492Z,922.66
2019-03-13T06:35:50.481Z,922.65
2019-03-13T06:36:50.488Z,922.67
2019-03-13T06:37:50.604Z,922.62
2019-03-13T06:38:50.446Z,922.60
2019-03-13T06:39:50.437Z,922.62
2019-03-13T06:40:50.425Z,922.61
2019-03-13T06:41:50.411Z,922.62
2019-03-13T06:42:50.421Z,922.59
2019-03-13T06:43:50.498Z,922.56
2019-03-13T06:44:50.389Z,922.54
2019-03-13T06:45:50.378Z,922.59
2019-03-13T06:46:50.364Z,922.54
2019-03-13T06:47:50.358Z,922.58
2019-03-13T06:48:50.346Z,922.52
2019-03-13T06:49:50.384Z,922.54
2019-03-13T06:50:50.318Z,922.52
2019-03-13T06:51:50.310Z,922.49
2019-03-13T06:52:50.305Z,922.50
2019-03-13T06:53:50.290Z,922.49
2019-03-13T06:54:50.278Z,922.49
2019-03-13T06:55:50.422Z,922.46
2019-03-13T06:56:50.258Z,922.48
2019-03-13T06:57:50.251Z,922.49
2019-03-13T06:58:50.301Z,922.42
2019-03-13T06:59:50.229Z,922.43
2019-03-13T07:00:50.221Z,922.42
2019-03-13T07:01:50.310Z,922.42
2019-03-13T07:02:50.200Z,922.40
2019-03-13T07:03:50.188Z,922.39
2019-03-13T07:04:50.181Z,922.46
2019-03-13T07:05:50.169Z,922.37
2019-03-13T07:06:50.158Z,922.37
2019-03-13T07:07:50.246Z,922.36
2019-03-13T07:08:50.133Z,922.35
2019-03-13T07:09:50.124Z,922.32
2019-03-13T07:10:50.117Z,922.34
2019-03-13T07:11:50.100Z,922.39
2019-03-13T07:12:50.094Z,922.32
2019-03-13T07:13:50.486Z,922.30
2019-03-13T07:14:50.070Z,922.33
2019-03-13T07:15:50.063Z,922.29
2019-03-13T07:16:50.054Z,922.25
2019-03-13T07:17:50.042Z,922.30
2019-03-13T07:18:50.037Z,922.31
2019-03-13T07:20:50.061Z,922.29
2019-03-13T07:21:50.004Z,922.26
2019-03-13T07:22:50.001Z,922.23
2019-03-13T07:23:49.983Z,922.23
2019-03-13T07:24:49.970Z,922.18
2019-03-13T07:25:49.960Z,922.18
2019-03-13T07:26:51.502Z,922.20
2019-03-13T07:27:49.941Z,922.19
2019-03-13T07:28:52.409Z,922.15
2019-03-13T07:29:49.922Z,922.14
2019-03-13T07:30:49.908Z,922.13
2019-03-13T07:31:49.897Z,922.07
2019-03-13T07:32:50.091Z,922.11
2019-03-13T07:33:49.875Z,922.07
2019-03-13T07:34:49.871Z,922.04
2019-03-13T07:35:49.856Z,922.04
2019-03-13T07:36:49.852Z,922.00
2019-03-13T07:37:49.831Z,921.98
2019-03-13T07:38:49.877Z,922.01
2019-03-13T07:39:49.814Z,922.02
2019-03-13T07:40:49.812Z,922.00
2019-03-13T07:41:49.805Z,921.94
2019-03-13T07:42:49.779Z,921.94
2019-03-13T07:43:49.773Z,921.92
2019-03-13T07:44:49.864Z,921.92
2019-03-13T07:45:49.754Z,921.88
2019-03-13T07:46:49.832Z,921.86
2019-03-13T07:47:49.730Z,921.84
2019-03-13T07:48:49.724Z,921.83
2019-03-13T07:49:49.713Z,921.87
2019-03-13T07:50:49.805Z,921.79
2019-03-13T07:51:49.688Z,921.84
2019-03-13T07:52:49.681Z,921.78
2019-03-13T07:53:49.670Z,921.76
2019-03-13T07:54:49.659Z,921.82
2019-03-13T07:55:49.647Z,921.78
2019-03-13T07:56:49.686Z,921.75
2019-03-13T07:57:49.627Z,921.76
2019-03-13T07:58:49.615Z,921.72
2019-03-13T07:59:49.606Z,921.75
2019-03-13T08:00:49.592Z,921.70
2019-03-13T08:01:49.735Z,921.68
2019-03-13T08:02:49.578Z,921.67
2019-03-13T08:03:49.561Z,921.65
2019-03-13T08:04:49.554Z,921.63
2019-03-13T08:05:49.543Z,921.61
2019-03-13T08:06:49.533Z,921.61
2019-03-13T08:07:49.571Z,921.58
2019-03-13T08:08:49.515Z,921.55
2019-03-13T08:09:49.505Z,921.57
2019-03-13T08:10:49.487Z,921.56
2019-03-13T08:11:49.479Z,921.52
2019-03-13T08:12:49.470Z,921.53
2019-03-13T08:13:49.509Z,921.45
2019-03-13T08:14:49.445Z,921.50
2019-03-13T08:15:49.439Z,921.43
2019-03-13T08:16:49.427Z,921.42
2019-03-13T08:17:49.419Z,921.47
2019-03-13T08:18:49.557Z,921.40
2019-03-13T08:19:49.401Z,921.41
2019-03-13T08:20:49.388Z,921.40
2019-03-13T08:21:49.375Z,921.40
2019-03-13T08:22:49.365Z,921.34
2019-03-13T08:23:49.353Z,921.35
2019-03-13T08:24:49.407Z,921.33
2019-03-13T08:25:49.330Z,921.37
2019-03-13T08:26:49.322Z,921.33
2019-03-13T08:27:49.314Z,921.31
2019-03-13T08:28:49.303Z,921.29
2019-03-13T08:29:49.291Z,921.30
2019-03-13T08:30:49.383Z,921.27
2019-03-13T08:31:49.270Z,921.22
2019-03-13T08:32:49.256Z,921.27
2019-03-13T08:33:49.245Z,921.23
2019-03-13T08:34:49.253Z,921.22
2019-03-13T08:35:49.227Z,921.22
2019-03-13T08:36:49.615Z,921.18
2019-03-13T08:37:49.209Z,921.16
2019-03-13T08:38:49.198Z,921.16
2019-03-13T08:39:49.180Z,921.11
2019-03-13T08:40:49.168Z,921.12
2019-03-13T08:41:49.257Z,921.14
2019-03-13T08:42:49.146Z,921.11
2019-03-13T08:43:49.139Z,921.11
2019-03-13T08:44:49.137Z,921.09
2019-03-13T08:45:49.121Z,921.10
2019-03-13T08:46:49.209Z,921.07
2019-03-13T08:47:49.096Z,921.08
2019-03-13T08:48:49.084Z,921.05
2019-03-13T08:49:49.077Z,921.05
2019-03-13T08:50:49.085Z,921.08
2019-03-13T08:51:49.404Z,921.05
2019-03-13T08:52:49.045Z,921.05
2019-03-13T08:53:49.035Z,921.05
2019-03-13T08:54:49.020Z,921.03
2019-03-13T08:55:49.014Z,921.00
2019-03-13T08:56:49.251Z,921.00
2019-03-13T08:57:48.993Z,920.93
2019-03-13T08:58:48.979Z,920.99
2019-03-13T08:59:48.969Z,920.93
2019-03-13T09:00:48.959Z,920.91
2019-03-13T09:01:48.945Z,920.94
2019-03-13T09:02:48.984Z,920.90
2019-03-13T09:03:48.930Z,920.92
2019-03-13T09:04:48.915Z,920.86
2019-03-13T09:05:48.905Z,920.88
2019-03-13T09:06:48.894Z,920.85
2019-03-13T09:07:48.882Z,920.82
2019-03-13T09:08:48.971Z,920.86
2019-03-13T09:09:48.862Z,920.88
2019-03-13T09:10:48.861Z,920.86
2019-03-13T09:11:48.838Z,920.80
2019-03-13T09:12:48.829Z,920.84
2019-03-13T09:13:48.871Z,920.73
2019-03-13T09:14:48.810Z,920.77
2019-03-13T09:15:48.799Z,920.78
2019-03-13T09:16:48.814Z,920.76
2019-03-13T09:17:48.775Z,920.75
2019-03-13T09:18:48.769Z,920.78
2019-03-13T09:19:48.808Z,920.72
2019-03-13T09:20:48.745Z,920.68
2019-03-13T09:21:48.737Z,920.70
2019-03-13T09:22:48.729Z,920.66
2019-03-13T09:23:48.716Z,920.67
2019-03-13T09:24:48.706Z,920.64
2019-03-13T09:25:48.796Z,920.62
2019-03-13T09:26:48.684Z,920.67
2019-03-13T09:27:48.675Z,920.63
2019-03-13T09:28:48.660Z,920.62
2019-03-13T09:29:48.651Z,920.58
2019-03-13T09:30:48.644Z,920.54
2019-03-13T09:31:48.879Z,920.61
2019-03-13T09:32:48.623Z,920.56
2019-03-13T09:33:48.609Z,920.59
2019-03-13T09:34:48.597Z,920.58
2019-03-13T09:35:48.589Z,920.61
2019-03-13T09:36:48.582Z,920.57
2019-03-13T09:37:48.667Z,920.57
2019-03-13T09:38:48.556Z,920.53
2019-03-13T09:39:48.551Z,920.55
2019-03-13T09:40:48.535Z,920.51
2019-03-13T09:41:48.523Z,920.52
2019-03-13T09:42:48.509Z,920.53
2019-03-13T09:43:48.556Z,920.53
2019-03-13T09:44:48.493Z,920.49
2019-03-13T09:45:48.480Z,920.48
2019-03-13T09:46:48.467Z,920.45
2019-03-13T09:47:48.460Z,920.50
2019-03-13T09:48:48.450Z,920.50
2019-03-13T09:49:48.640Z,920.52
2019-03-13T09:50:48.429Z,920.51
2019-03-13T09:51:48.418Z,920.54
2019-03-13T09:52:48.407Z,920.49
2019-03-13T09:53:48.398Z,920.53
2019-03-13T09:54:48.382Z,920.49
2019-03-13T09:55:48.430Z,920.51
2019-03-13T09:56:48.364Z,920.44
2019-03-13T09:57:48.354Z,920.46
2019-03-13T09:58:48.357Z,920.50
2019-03-13T09:59:48.333Z,920.48
2019-03-13T10:00:48.323Z,920.40
2019-03-13T10:01:48.415Z,920.48
2019-03-13T10:02:48.305Z,920.41
2019-03-13T10:03:48.294Z,920.45
2019-03-13T10:04:48.281Z,920.49
2019-03-13T10:05:48.271Z,920.44
2019-03-13T10:06:48.258Z,920.46
2019-03-13T10:07:48.397Z,920.47
2019-03-13T10:08:48.239Z,920.50
2019-03-13T10:09:48.228Z,920.49
2019-03-13T10:10:48.213Z,920.50
2019-03-13T10:11:48.209Z,920.48
2019-03-13T10:12:48.197Z,920.51
2019-03-13T10:13:48.287Z,920.54
2019-03-13T10:14:48.179Z,920.51
2019-03-13T10:15:48.165Z,920.53
2019-03-13T10:16:48.177Z,920.48
2019-03-13T10:17:48.143Z,920.51
2019-03-13T10:18:48.138Z,920.48
2019-03-13T10:19:48.175Z,920.45
2019-03-13T10:20:48.114Z,920.52
2019-03-13T10:21:48.101Z,920.51
2019-03-13T10:22:48.090Z,920.53
2019-03-13T10:23:48.082Z,920.49
2019-03-13T10:24:48.074Z,920.52
2019-03-13T10:25:49.363Z,920.51
2019-03-13T10:26:48.048Z,920.57
2019-03-13T10:27:48.039Z,920.55
2019-03-13T10:28:48.030Z,920.59
2019-03-13T10:29:48.023Z,920.58
2019-03-13T10:30:48.079Z,920.56
2019-03-13T10:31:48.000Z,920.59
2019-03-13T10:32:47.984Z,920.59
2019-03-13T10:33:47.977Z,920.57
2019-03-13T10:34:47.973Z,920.52
2019-03-13T10:35:47.958Z,920.51
2019-03-13T10:36:50.371Z,920.54
2019-03-13T10:37:47.935Z,920.57
2019-03-13T10:38:47.926Z,920.56
2019-03-13T10:39:47.914Z,920.54
2019-03-13T10:40:47.906Z,920.57
2019-03-13T10:41:48.047Z,920.55
2019-03-13T10:42:47.885Z,920.54
2019-03-13T10:43:47.874Z,920.51
2019-03-13T10:44:47.865Z,920.49
2019-03-13T10:45:47.850Z,920.52
2019-03-13T10:46:47.843Z,920.50
2019-03-13T10:47:47.881Z,920.51
2019-03-13T10:48:47.817Z,920.56
2019-03-13T10:49:47.815Z,920.57
2019-03-13T10:50:47.800Z,920.56
2019-03-13T10:51:47.790Z,920.60
2019-03-13T10:52:48.022Z,920.57
2019-03-13T10:53:47.766Z,920.61
2019-03-13T10:54:47.757Z,920.65
2019-03-13T10:55:47.746Z,920.66
2019-03-13T10:56:47.735Z,920.66
2019-03-13T10:57:47.722Z,920.72
2019-03-13T10:58:47.762Z,920.68
2019-03-13T10:59:47.705Z,920.71
2019-03-13T11:00:47.697Z,920.73
2019-03-13T11:01:47.678Z,920.71
2019-03-13T11:02:47.677Z,920.73
2019-03-13T11:03:48.011Z,920.70
2019-03-13T11:04:47.649Z,920.60
2019-03-13T11:05:47.645Z,920.64
2019-03-13T11:06:54.870Z,920.70
2019-03-13T11:08:12.427Z,920.70
2019-03-13T11:09:12.520Z,920.70
2019-03-13T11:10:12.412Z,920.70
2019-03-13T11:11:12.392Z,920.69
2019-03-13T11:12:12.388Z,920.65
2019-03-13T11:13:12.377Z,920.70
2019-03-13T11:14:15.809Z,920.76
2019-03-13T11:15:12.407Z,920.70
2019-03-13T11:16:12.341Z,920.61
2019-03-13T11:17:12.332Z,920.71
2019-03-13T11:18:12.325Z,920.62
2019-03-13T11:19:12.310Z,920.66
2019-03-13T11:20:12.300Z,920.64
2019-03-13T11:21:12.440Z,920.65
2019-03-13T11:22:12.277Z,920.66
2019-03-13T11:23:12.264Z,920.74
2019-03-13T11:24:12.255Z,920.80
2019-03-13T11:25:12.245Z,920.87
2019-03-13T11:26:12.334Z,920.76
2019-03-13T11:27:12.229Z,920.74
2019-03-13T11:28:12.211Z,920.74
2019-03-13T11:29:12.204Z,920.78
2019-03-13T11:30:12.196Z,920.75
2019-03-13T11:31:12.181Z,920.73
2019-03-13T11:32:12.267Z,920.75
2019-03-13T11:33:12.161Z,920.71
2019-03-13T11:34:12.147Z,920.74
2019-03-13T11:35:12.133Z,920.77
2019-03-13T11:36:12.121Z,920.76
2019-03-13T11:37:12.107Z,920.81
2019-03-13T11:38:12.153Z,920.74
2019-03-13T11:39:12.091Z,920.73
2019-03-13T11:40:12.079Z,920.74
2019-03-13T11:41:12.069Z,920.87
2019-03-13T11:42:12.057Z,920.87
2019-03-13T11:43:12.197Z,920.83
2019-03-13T11:44:12.036Z,920.80
2019-03-13T11:45:12.020Z,920.81
2019-03-13T11:46:12.013Z,920.80
2019-03-13T11:47:12.002Z,920.83
2019-03-13T11:48:11.991Z,920.84
2019-03-13T11:49:12.632Z,920.83
2019-03-13T11:50:11.978Z,920.77
2019-03-13T11:51:11.954Z,920.74
2019-03-13T11:52:11.947Z,920.88
2019-03-13T11:53:11.935Z,920.88
2019-03-13T11:54:11.923Z,920.78
2019-03-13T11:55:11.967Z,920.84
2019-03-13T11:56:11.906Z,920.75
2019-03-13T11:57:11.891Z,920.79
2019-03-13T11:58:11.881Z,920.77
2019-03-13T11:59:11.867Z,920.73
2019-03-13T12:00:11.858Z,920.68
2019-03-13T12:01:11.895Z,920.74
2019-03-13T12:02:11.833Z,920.72
2019-03-13T12:03:11.827Z,920.72
2019-03-13T12:04:11.820Z,920.68
2019-03-13T12:05:11.801Z,920.70
2019-03-13T12:06:11.799Z,920.68
2019-03-13T12:07:11.983Z,920.69
2019-03-13T12:08:11.767Z,920.71
2019-03-13T12:09:11.755Z,920.67
2019-03-13T12:10:11.745Z,920.75
2019-03-13T12:11:11.737Z,920.70
2019-03-13T12:12:11.728Z,920.64
2019-03-13T12:13:11.766Z,920.68
2019-03-13T12:14:11.706Z,920.66
2019-03-13T12:15:11.687Z,920.71
2019-03-13T12:16:11.684Z,920.68
2019-03-13T12:17:11.669Z,920.70
2019-03-13T12:18:11.658Z,920.67
2019-03-13T12:19:11.701Z,920.73
2019-03-13T12:20:11.637Z,920.74
2019-03-13T12:21:11.627Z,920.75
2019-03-13T12:22:11.617Z,920.73
2019-03-13T12:23:11.608Z,920.66
2019-03-13T12:24:11.594Z,920.71
2019-03-13T12:25:11.988Z,920.71
2019-03-13T12:26:11.573Z,920.67
2019-03-13T12:27:11.563Z,920.69
2019-03-13T12:28:11.549Z,920.66
2019-03-13T12:29:11.540Z,920.73
2019-03-13T12:30:11.534Z,920.81